ADDS METAR Data INFO
IDs: Format: Raw Decoded Include TAF

Data at: 0512 UTC 22 Jul 2017

KHHF 220455Z AUTO 17010KT 10SM CLR 30/15 A2995 RMK AO2 T02950150
KHHF 220435Z AUTO 17009KT 10SM CLR 30/15 A2995 RMK AO2 T02960149
KHHF 220415Z AUTO 17010KT 10SM CLR 31/15 A2994 RMK AO2 T03100146
KHHF 220355Z AUTO 17010G15KT 10SM CLR 31/14 A2993 RMK AO2 T03100144
KHHF 220335Z AUTO 17009KT 10SM CLR 32/14 A2992 RMK AO2 T03150142
KHHF 220315Z AUTO 17008KT 10SM CLR 31/14 A2992 RMK AO2 T03130138
KHHF 220255Z AUTO 17007KT 10SM CLR 32/14 A2991 RMK AO2 T03170135
KHHF 220235Z AUTO 18009KT 10SM CLR 33/13 A2991 RMK AO2 T03250132
KHHF 220215Z AUTO 18008KT 10SM CLR 33/13 A2990 RMK AO2 T03280128
KHHF 220155Z AUTO 18007KT 10SM CLR 33/13 A2989 RMK AO2 T03320127
KHHF 220135Z AUTO 19008KT 10SM CLR 34/13 A2989 RMK AO2 T03410127
KHHF 220115Z AUTO 19008KT 10SM CLR 36/13 A2989 RMK AO2 T03590125
KHHF 220055Z AUTO 19008KT 10SM CLR 37/12 A2988 RMK AO2 T03660124
KHHF 220035Z AUTO 19010G16KT 10SM CLR 37/12 A2989 RMK AO2 T03710118 PNO
KHHF 220015Z AUTO 19010KT 10SM SCT110 38/12 A2989 RMK AO2 T03750115
KHHF 212355Z AUTO 19013G17KT 10SM SCT110 38/12 A2988 RMK AO2 T03800121 10390 20362
KHHF 212335Z AUTO 20013G20KT 10SM SCT110 38/12 A2989 RMK AO2 T03810119
KHHF 212315Z AUTO 19010G18KT 10SM SCT110 38/12 A2989 RMK AO2 T03820116
KHHF 212255Z AUTO 18012G21KT 10SM SCT110 39/12 A2990 RMK AO2 T03850118
KHHF 212235Z AUTO 19011G17KT 10SM SCT110 39/12 A2990 RMK AO2 T03860124
KHHF 212215Z AUTO 18010G16KT 10SM SCT110 38/12 A2991 RMK AO2 T03790124
KHHF 212155Z AUTO 20013G16KT 10SM SCT110 39/13 A2992 RMK AO2 T03850126
KHHF 212135Z AUTO 18009G19KT 10SM SCT110 39/13 A2993 RMK AO2 T03880132
KHHF 212115Z AUTO 22011G14KT 10SM SCT110 39/12 A2993 RMK AO2 T03900122
KHHF 212055Z AUTO 21013G17KT 10SM SCT100 38/12 A2994 RMK AO2 T03810121
KHHF 212035Z AUTO 19012G21KT 10SM SCT100 38/13 A2995 RMK AO2 T03780126
KHHF 212015Z AUTO 21009G21KT 10SM SCT095 38/14 A2995 RMK AO2 T03820139
KHHF 211955Z AUTO 24011G20KT 200V260 10SM SCT095 38/13 A2996 RMK AO2 T03820133
KHHF 211935Z AUTO 21010G20KT 10SM SCT095 38/14 A2996 RMK AO2 T03810136
KHHF 211915Z AUTO 23012G18KT 10SM SCT095 38/14 A2997 RMK AO2 T03800137
KHHF 211855Z AUTO 22014G18KT 10SM SCT095 38/14 A2998 RMK AO2 T03750144
KHHF 211835Z AUTO 23010G21KT 10SM SCT095 37/15 A2998 RMK AO2 T03700147
KHHF 211815Z AUTO 24011G22KT 10SM BKN095 38/15 A2999 RMK AO2 T03750147
KHHF 211755Z AUTO 25011G18KT 10SM CLR 37/15 A2999 RMK AO2 T03710148 10375 20238
KHHF 211735Z AUTO 21014G21KT 10SM CLR 37/15 A2999 RMK AO2 T03710149
KHHF 211715Z AUTO 25014KT 10SM CLR 37/15 A3000 RMK AO2 T03660151
KHHF 211655Z AUTO 24013G21KT 10SM CLR 36/15 A3000 RMK AO2 T03610150
KHHF 211635Z AUTO 24015G20KT 10SM CLR 35/15 A3001 RMK AO2 T03530148
KHHF 211615Z AUTO 24013G21KT 10SM CLR 35/15 A3001 RMK AO2 T03520150
KHHF 211555Z AUTO 23017G22KT 10SM CLR 34/15 A3000 RMK AO2 T03440148
KHHF 211535Z AUTO 24016G21KT 10SM CLR 34/15 A3001 RMK AO2 T03400150
KHHF 211515Z AUTO 24016G22KT 10SM CLR 33/15 A3001 RMK AO2 T03290149
KHHF 211455Z AUTO 24018KT 10SM CLR 32/15 A3002 RMK AO2 T03230150
KHHF 211435Z AUTO 24012G15KT 10SM CLR 31/16 A3002 RMK AO2 T03100159
KHHF 211415Z AUTO 23010KT 10SM CLR 30/16 A3002 RMK AO2 T02970157
KHHF 211355Z AUTO 23011G16KT 10SM CLR 29/16 A3002 RMK AO2 T02910161
KHHF 211335Z AUTO 21012KT 10SM CLR 28/17 A3002 RMK AO2 T02830170
KHHF 211315Z AUTO 21010KT 10SM CLR 27/18 A3002 RMK AO2 T02680179
KHHF 211255Z AUTO 22006KT 10SM CLR 26/18 A3002 RMK AO2 T02550180
KHHF 211235Z AUTO 21011KT 10SM CLR 25/18 A3001 RMK AO2 T02500178
KHHF 211215Z AUTO 21009KT 10SM CLR 25/18 A3001 RMK AO2 T02450177
KHHF 211155Z AUTO 22007KT 10SM CLR 24/18 A3001 RMK AO2 T02400180 10290 20230
KHHF 211135Z AUTO 23008KT 10SM CLR 23/18 A3001 RMK AO2 T02300177
KHHF 211115Z AUTO 24007KT 10SM CLR 24/18 A3000 RMK AO2 T02400180
KHHF 211055Z AUTO 22006KT 10SM CLR 24/18 A3000 RMK AO2 T02410176
KHHF 211035Z AUTO 21008KT 10SM CLR 25/18 A3000 RMK AO2 T02520178
KHHF 211015Z AUTO 19011G15KT 10SM CLR 26/18 A2999 RMK AO2 T02550176
KHHF 210955Z AUTO 20011KT 10SM CLR 26/18 A3000 RMK AO2 T02570176
KHHF 210935Z AUTO 20009KT 10SM CLR 26/18 A3000 RMK AO2 T02570176
KHHF 210915Z AUTO 19011KT 10SM CLR 26/18 A3000 RMK AO2 T02610175
KHHF 210855Z AUTO 20011KT 10SM CLR 26/17 A3000 RMK AO2 T02630174
KHHF 210835Z AUTO 20012G16KT 10SM CLR 27/17 A3000 RMK AO2 T02680173
KHHF 210815Z AUTO 18013G17KT 10SM CLR 27/17 A3000 RMK AO2 T02720171
KHHF 210755Z AUTO 18014G17KT 10SM CLR 28/17 A3000 RMK AO2 T02750168
KHHF 210735Z AUTO 18012G18KT 10SM CLR 28/17 A3000 RMK AO2 T02760168
KHHF 210715Z AUTO 18014G19KT 10SM CLR 28/17 A3001 RMK AO2 T02790166
KHHF 210655Z AUTO 18015G19KT 10SM CLR 28/17 A3001 RMK AO2 T02820165
KHHF 210635Z AUTO 18014G19KT 10SM CLR 28/16 A3001 RMK AO2 T02840162
KHHF 210615Z AUTO 18015G21KT 10SM CLR 29/16 A3001 RMK AO2 T02860161
KHHF 210555Z AUTO 18013G17KT 10SM CLR 29/16 A3001 RMK AO2 T02900160 10376 20290 403860236
KHHF 210535Z AUTO 17011KT 10SM CLR 29/16 A3001 RMK AO2 T02900158
KHHF 210515Z AUTO 17012G16KT 10SM CLR 29/16 A3001 RMK AO2 T02910157
KHHF 210455Z AUTO 17012KT 10SM CLR 29/16 A3001 RMK AO2 T02910156
KHHF 210435Z AUTO 17011KT 10SM CLR 30/16 A3001 RMK AO2 T02960155
KHHF 210415Z AUTO 17010KT 10SM CLR 30/15 A3000 RMK AO2 T03030152
KHHF 210355Z AUTO 17010KT 10SM CLR 31/15 A3000 RMK AO2 T03050148
KHHF 210335Z AUTO 17009KT 10SM CLR 31/15 A2999 RMK AO2 T03050145
KHHF 210315Z AUTO 17008KT 10SM CLR 32/14 A2999 RMK AO2 T03170144
KHHF 210255Z AUTO 17009KT 10SM CLR 32/14 A2998 RMK AO2 T03170142
KHHF 210235Z AUTO 17007KT 10SM CLR 32/14 A2997 RMK AO2 T03170140
KHHF 210215Z AUTO 18008KT 10SM CLR 33/14 A2997 RMK AO2 T03250138
KHHF 210155Z AUTO 17006KT 10SM CLR 33/14 A2996 RMK AO2 T03310141
KHHF 210135Z AUTO 19009KT 10SM CLR 34/14 A2996 RMK AO2 T03440138
KHHF 210115Z AUTO 19009KT 10SM CLR 35/14 A2995 RMK AO2 T03530136
KHHF 210055Z AUTO 18009KT 10SM CLR 36/14 A2996 RMK AO2 T03600135
KHHF 210035Z AUTO 20011KT 10SM SCT100 37/13 A2996 RMK AO2 T03670131
KHHF 210015Z AUTO 19008KT 10SM SCT100 37/13 A2995 RMK AO2 T03720131
KHHF 202355Z AUTO 20009G17KT 10SM BKN100 38/13 A2996 RMK AO2 T03750131 10386 20361
KHHF 202335Z AUTO 23010G14KT 10SM SCT100 38/13 A2996 RMK AO2 T03790133
KHHF 202315Z AUTO 17008G11KT 10SM BKN100 38/13 A2997 RMK AO2 T03800132
KHHF 202255Z AUTO 22010KT 10SM SCT100 38/13 A2998 RMK AO2 T03830132
KHHF 202235Z AUTO 19009G14KT 10SM SCT110 38/13 A2998 RMK AO2 T03830125
KHHF 202215Z AUTO 21007G15KT 10SM SCT110 39/13 A2999 RMK AO2 T03850127
KHHF 202155Z AUTO 21011G21KT 10SM SCT100 38/12 A3000 RMK AO2 T03820123
KHHF 202135Z AUTO 21008G17KT 10SM CLR 38/13 A3001 RMK AO2 T03830128
KHHF 202115Z AUTO 20011G19KT 10SM SCT100 38/13 A3002 RMK AO2 T03800130
KHHF 202055Z AUTO 22014G19KT 10SM SCT100 38/14 A3003 RMK AO2 T03810135
KHHF 202035Z AUTO 21013G23KT 10SM CLR 37/13 A3004 RMK AO2 T03720134
KHHF 202015Z AUTO 22007KT 180V240 10SM SCT090 37/13 A3004 RMK AO2 T03740131
KHHF 201955Z AUTO 22013G17KT 210V270 10SM SCT090 37/14 A3005 RMK AO2 T03730138
KHHF 201935Z AUTO 20009G19KT 10SM SCT090 37/14 A3005 RMK AO2 T03700142
KHHF 201915Z AUTO 20009G24KT 10SM SCT090 37/15 A3006 RMK AO2 T03670147
KHHF 201855Z AUTO 22011G21KT 10SM SCT090 37/15 A3006 RMK AO2 T03680147
KHHF 201835Z AUTO 21018G22KT 10SM SCT085 37/15 A3007 RMK AO2 T03680151
KHHF 201815Z AUTO 23013G16KT 10SM SCT085 37/15 A3008 RMK AO2 T03690153
KHHF 201755Z AUTO 20010G18KT 10SM CLR 36/15 A3009 RMK AO2 T03590152 10366 20237
KHHF 201735Z AUTO 23012G19KT 10SM SCT090 36/15 A3009 RMK AO2 T03580150
KHHF 201715Z AUTO 23014G18KT 10SM SCT090 35/16 A3010 RMK AO2 T03540164